sensor_id;sensor_type;location;lat;lon;timestamp;temperature;humidity
12622;DHT22;6376;48.182;-1.644;2022-08-19T00:02:04;21.90;72.00
12622;DHT22;6376;48.182;-1.644;2022-08-19T00:04:33;21.90;72.00
12622;DHT22;6376;48.182;-1.644;2022-08-19T00:07:02;21.90;72.10
12622;DHT22;6376;48.182;-1.644;2022-08-19T00:09:29;21.80;72.10
12622;DHT22;6376;48.182;-1.644;2022-08-19T00:11:55;21.80;72.10
12622;DHT22;6376;48.182;-1.644;2022-08-19T00:14:23;21.80;72.20
12622;DHT22;6376;48.182;-1.644;2022-08-19T00:16:50;21.80;72.10
12622;DHT22;6376;48.182;-1.644;2022-08-19T00:19:20;21.80;72.10
12622;DHT22;6376;48.182;-1.644;2022-08-19T00:21:46;21.80;72.20
12622;DHT22;6376;48.182;-1.644;2022-08-19T00:24:14;21.80;72.20
12622;DHT22;6376;48.182;-1.644;2022-08-19T00:26:41;21.80;72.20
12622;DHT22;6376;48.182;-1.644;2022-08-19T00:29:10;21.80;72.20
12622;DHT22;6376;48.182;-1.644;2022-08-19T00:31:37;21.80;72.20
12622;DHT22;6376;48.182;-1.644;2022-08-19T00:34:03;21.80;72.20
12622;DHT22;6376;48.182;-1.644;2022-08-19T00:36:29;21.80;72.30
12622;DHT22;6376;48.182;-1.644;2022-08-19T00:38:55;21.80;72.20
12622;DHT22;6376;48.182;-1.644;2022-08-19T00:41:23;21.80;72.20
12622;DHT22;6376;48.182;-1.644;2022-08-19T00:44:07;21.80;72.20
12622;DHT22;6376;48.182;-1.644;2022-08-19T00:46:34;21.80;72.20
12622;DHT22;6376;48.182;-1.644;2022-08-19T00:49:07;21.80;72.20
12622;DHT22;6376;48.182;-1.644;2022-08-19T00:51:34;21.80;72.20
12622;DHT22;6376;48.182;-1.644;2022-08-19T00:54:02;21.80;72.20
12622;DHT22;6376;48.182;-1.644;2022-08-19T00:56:28;21.80;72.20
12622;DHT22;6376;48.182;-1.644;2022-08-19T00:58:55;21.80;72.20
12622;DHT22;6376;48.182;-1.644;2022-08-19T01:01:21;21.80;72.20
12622;DHT22;6376;48.182;-1.644;2022-08-19T01:03:47;21.80;72.20
12622;DHT22;6376;48.182;-1.644;2022-08-19T01:06:13;21.80;72.30
12622;DHT22;6376;48.182;-1.644;2022-08-19T01:08:39;21.80;72.30
12622;DHT22;6376;48.182;-1.644;2022-08-19T01:11:06;21.80;72.30
12622;DHT22;6376;48.182;-1.644;2022-08-19T01:13:33;21.80;72.30
12622;DHT22;6376;48.182;-1.644;2022-08-19T01:16:07;21.70;72.30
12622;DHT22;6376;48.182;-1.644;2022-08-19T01:18:36;21.70;72.30
12622;DHT22;6376;48.182;-1.644;2022-08-19T01:21:09;21.80;72.40
12622;DHT22;6376;48.182;-1.644;2022-08-19T01:23:36;21.80;72.40
12622;DHT22;6376;48.182;-1.644;2022-08-19T01:26:20;21.80;72.50
12622;DHT22;6376;48.182;-1.644;2022-08-19T01:28:49;21.70;72.40
12622;DHT22;6376;48.182;-1.644;2022-08-19T01:31:20;21.70;72.30
12622;DHT22;6376;48.182;-1.644;2022-08-19T01:33:47;21.70;72.30
12622;DHT22;6376;48.182;-1.644;2022-08-19T01:36:24;21.70;72.40
12622;DHT22;6376;48.182;-1.644;2022-08-19T01:38:51;21.70;72.30
12622;DHT22;6376;48.182;-1.644;2022-08-19T01:41:18;21.70;72.40
12622;DHT22;6376;48.182;-1.644;2022-08-19T01:43:43;21.70;72.50
12622;DHT22;6376;48.182;-1.644;2022-08-19T01:46:10;21.70;72.50
12622;DHT22;6376;48.182;-1.644;2022-08-19T01:48:38;21.70;72.50
12622;DHT22;6376;48.182;-1.644;2022-08-19T01:51:05;21.70;72.40
12622;DHT22;6376;48.182;-1.644;2022-08-19T01:53:32;21.70;72.30
12622;DHT22;6376;48.182;-1.644;2022-08-19T01:55:58;21.70;72.40
12622;DHT22;6376;48.182;-1.644;2022-08-19T01:58:33;21.70;72.40
12622;DHT22;6376;48.182;-1.644;2022-08-19T02:01:01;21.70;72.50
12622;DHT22;6376;48.182;-1.644;2022-08-19T02:03:27;21.70;72.60
12622;DHT22;6376;48.182;-1.644;2022-08-19T02:05:59;21.70;72.50
12622;DHT22;6376;48.182;-1.644;2022-08-19T02:08:26;21.70;72.50
12622;DHT22;6376;48.182;-1.644;2022-08-19T02:10:53;21.70;72.50
12622;DHT22;6376;48.182;-1.644;2022-08-19T02:13:19;21.70;72.50
12622;DHT22;6376;48.182;-1.644;2022-08-19T02:15:45;21.70;72.50
12622;DHT22;6376;48.182;-1.644;2022-08-19T02:18:11;21.70;72.60
12622;DHT22;6376;48.182;-1.644;2022-08-19T02:20:39;21.70;72.70
12622;DHT22;6376;48.182;-1.644;2022-08-19T02:23:06;21.70;72.60
12622;DHT22;6376;48.182;-1.644;2022-08-19T02:25:32;21.70;72.70
12622;DHT22;6376;48.182;-1.644;2022-08-19T02:27:58;21.70;73.00
12622;DHT22;6376;48.182;-1.644;2022-08-19T02:30:24;21.70;72.80
12622;DHT22;6376;48.182;-1.644;2022-08-19T02:32:50;21.70;72.90
12622;DHT22;6376;48.182;-1.644;2022-08-19T02:35:16;21.70;73.00
12622;DHT22;6376;48.182;-1.644;2022-08-19T02:37:43;21.70;72.90
12622;DHT22;6376;48.182;-1.644;2022-08-19T02:40:28;21.70;72.90
12622;DHT22;6376;48.182;-1.644;2022-08-19T02:42:54;21.70;72.90
12622;DHT22;6376;48.182;-1.644;2022-08-19T02:45:20;21.70;73.10
12622;DHT22;6376;48.182;-1.644;2022-08-19T02:47:46;21.70;72.90
12622;DHT22;6376;48.182;-1.644;2022-08-19T02:50:12;21.70;73.10
12622;DHT22;6376;48.182;-1.644;2022-08-19T02:52:38;21.70;73.00
12622;DHT22;6376;48.182;-1.644;2022-08-19T02:55:05;21.60;73.00
12622;DHT22;6376;48.182;-1.644;2022-08-19T02:57:31;21.60;73.00
12622;DHT22;6376;48.182;-1.644;2022-08-19T02:59:57;21.60;73.00
12622;DHT22;6376;48.182;-1.644;2022-08-19T03:02:23;21.60;73.00
12622;DHT22;6376;48.182;-1.644;2022-08-19T03:04:49;21.60;72.90
12622;DHT22;6376;48.182;-1.644;2022-08-19T03:07:16;21.60;73.10
12622;DHT22;6376;48.182;-1.644;2022-08-19T03:09:43;21.60;72.90
12622;DHT22;6376;48.182;-1.644;2022-08-19T03:12:10;21.60;72.90
12622;DHT22;6376;48.182;-1.644;2022-08-19T03:14:37;21.60;72.90
12622;DHT22;6376;48.182;-1.644;2022-08-19T03:17:03;21.60;72.90
12622;DHT22;6376;48.182;-1.644;2022-08-19T03:19:30;21.60;72.90
12622;DHT22;6376;48.182;-1.644;2022-08-19T03:21:57;21.60;72.90
12622;DHT22;6376;48.182;-1.644;2022-08-19T03:24:23;21.60;72.90
12622;DHT22;6376;48.182;-1.644;2022-08-19T03:26:52;21.60;72.90
12622;DHT22;6376;48.182;-1.644;2022-08-19T03:29:19;21.60;72.90
12622;DHT22;6376;48.182;-1.644;2022-08-19T03:31:45;21.60;72.90
12622;DHT22;6376;48.182;-1.644;2022-08-19T03:34:15;21.60;72.90
12622;DHT22;6376;48.182;-1.644;2022-08-19T03:36:43;21.60;73.00
12622;DHT22;6376;48.182;-1.644;2022-08-19T03:39:10;21.60;73.00
12622;DHT22;6376;48.182;-1.644;2022-08-19T03:41:38;21.60;73.00
12622;DHT22;6376;48.182;-1.644;2022-08-19T03:44:04;21.60;73.00
12622;DHT22;6376;48.182;-1.644;2022-08-19T03:46:32;21.60;73.20
12622;DHT22;6376;48.182;-1.644;2022-08-19T03:49:00;21.60;73.20
12622;DHT22;6376;48.182;-1.644;2022-08-19T03:51:34;21.60;73.00
12622;DHT22;6376;48.182;-1.644;2022-08-19T03:54:03;21.60;72.90
12622;DHT22;6376;48.182;-1.644;2022-08-19T03:56:30;21.60;73.10
12622;DHT22;6376;48.182;-1.644;2022-08-19T03:58:56;21.60;73.30
12622;DHT22;6376;48.182;-1.644;2022-08-19T04:01:25;21.60;73.20
12622;DHT22;6376;48.182;-1.644;2022-08-19T04:03:56;21.60;73.20
12622;DHT22;6376;48.182;-1.644;2022-08-19T04:06:22;21.60;73.40
12622;DHT22;6376;48.182;-1.644;2022-08-19T04:08:50;21.60;73.30
12622;DHT22;6376;48.182;-1.644;2022-08-19T04:11:23;21.60;73.40
12622;DHT22;6376;48.182;-1.644;2022-08-19T04:13:50;21.60;73.60
12622;DHT22;6376;48.182;-1.644;2022-08-19T04:16:17;21.60;73.80
12622;DHT22;6376;48.182;-1.644;2022-08-19T04:18:44;21.60;73.90
12622;DHT22;6376;48.182;-1.644;2022-08-19T04:21:16;21.60;74.00
12622;DHT22;6376;48.182;-1.644;2022-08-19T04:23:42;21.60;74.10
12622;DHT22;6376;48.182;-1.644;2022-08-19T04:26:15;21.60;74.30
12622;DHT22;6376;48.182;-1.644;2022-08-19T04:28:42;21.60;74.40
12622;DHT22;6376;48.182;-1.644;2022-08-19T04:31:13;21.60;74.10
12622;DHT22;6376;48.182;-1.644;2022-08-19T04:33:39;21.50;74.20
12622;DHT22;6376;48.182;-1.644;2022-08-19T04:36:05;21.50;74.00
12622;DHT22;6376;48.182;-1.644;2022-08-19T04:38:31;21.50;73.80
12622;DHT22;6376;48.182;-1.644;2022-08-19T04:40:56;21.60;73.50
12622;DHT22;6376;48.182;-1.644;2022-08-19T04:43:40;21.60;73.60
12622;DHT22;6376;48.182;-1.644;2022-08-19T04:46:11;21.50;73.90
12622;DHT22;6376;48.182;-1.644;2022-08-19T04:48:38;21.50;73.80
12622;DHT22;6376;48.182;-1.644;2022-08-19T04:51:10;21.50;73.80
12622;DHT22;6376;48.182;-1.644;2022-08-19T04:53:40;21.60;73.70
12622;DHT22;6376;48.182;-1.644;2022-08-19T04:56:11;21.50;73.60
12622;DHT22;6376;48.182;-1.644;2022-08-19T04:58:39;21.50;73.50
12622;DHT22;6376;48.182;-1.644;2022-08-19T05:01:05;21.50;73.60
12622;DHT22;6376;48.182;-1.644;2022-08-19T05:03:31;21.50;73.40
12622;DHT22;6376;48.182;-1.644;2022-08-19T05:06:04;21.50;73.60
12622;DHT22;6376;48.182;-1.644;2022-08-19T05:08:31;21.50;73.30
12622;DHT22;6376;48.182;-1.644;2022-08-19T05:10:57;21.50;73.30
12622;DHT22;6376;48.182;-1.644;2022-08-19T05:13:23;21.50;73.40
12622;DHT22;6376;48.182;-1.644;2022-08-19T05:15:57;21.50;73.40
12622;DHT22;6376;48.182;-1.644;2022-08-19T05:18:23;21.50;73.30
12622;DHT22;6376;48.182;-1.644;2022-08-19T05:21:13;21.50;73.20
12622;DHT22;6376;48.182;-1.644;2022-08-19T05:23:57;21.50;73.40
12622;DHT22;6376;48.182;-1.644;2022-08-19T05:26:24;21.50;73.40
12622;DHT22;6376;48.182;-1.644;2022-08-19T05:28:52;21.50;73.50
12622;DHT22;6376;48.182;-1.644;2022-08-19T05:31:17;21.50;73.50
12622;DHT22;6376;48.182;-1.644;2022-08-19T05:33:43;21.50;73.50
12622;DHT22;6376;48.182;-1.644;2022-08-19T05:36:09;21.50;73.60
12622;DHT22;6376;48.182;-1.644;2022-08-19T05:38:35;21.50;73.60
12622;DHT22;6376;48.182;-1.644;2022-08-19T05:41:08;21.50;73.70
12622;DHT22;6376;48.182;-1.644;2022-08-19T05:43:34;21.50;73.80
12622;DHT22;6376;48.182;-1.644;2022-08-19T05:46:00;21.50;73.80
12622;DHT22;6376;48.182;-1.644;2022-08-19T05:48:26;21.50;73.90
12622;DHT22;6376;48.182;-1.644;2022-08-19T05:50:52;21.50;74.30
12622;DHT22;6376;48.182;-1.644;2022-08-19T05:53:19;21.50;74.10
12622;DHT22;6376;48.182;-1.644;2022-08-19T05:55:45;21.50;74.00
12622;DHT22;6376;48.182;-1.644;2022-08-19T05:58:10;21.50;74.20
12622;DHT22;6376;48.182;-1.644;2022-08-19T06:00:37;21.50;74.10
12622;DHT22;6376;48.182;-1.644;2022-08-19T06:03:03;21.50;74.00
12622;DHT22;6376;48.182;-1.644;2022-08-19T06:05:32;21.50;74.20
12622;DHT22;6376;48.182;-1.644;2022-08-19T06:07:58;21.50;74.20
12622;DHT22;6376;48.182;-1.644;2022-08-19T06:10:24;21.50;74.20
12622;DHT22;6376;48.182;-1.644;2022-08-19T06:12:51;21.50;74.00
12622;DHT22;6376;48.182;-1.644;2022-08-19T06:15:17;21.50;74.50
12622;DHT22;6376;48.182;-1.644;2022-08-19T06:17:43;21.50;74.50
12622;DHT22;6376;48.182;-1.644;2022-08-19T06:20:14;21.50;74.50
12622;DHT22;6376;48.182;-1.644;2022-08-19T06:22:42;21.50;74.10
12622;DHT22;6376;48.182;-1.644;2022-08-19T06:25:08;21.50;75.50
12622;DHT22;6376;48.182;-1.644;2022-08-19T06:27:35;21.50;74.40
12622;DHT22;6376;48.182;-1.644;2022-08-19T06:30:03;21.50;74.20
12622;DHT22;6376;48.182;-1.644;2022-08-19T06:32:28;21.50;73.90
12622;DHT22;6376;48.182;-1.644;2022-08-19T06:34:54;21.50;74.10
12622;DHT22;6376;48.182;-1.644;2022-08-19T06:37:20;21.50;74.00
12622;DHT22;6376;48.182;-1.644;2022-08-19T06:39:47;21.50;74.40
12622;DHT22;6376;48.182;-1.644;2022-08-19T06:42:13;21.50;74.20
12622;DHT22;6376;48.182;-1.644;2022-08-19T06:44:43;21.50;74.50
12622;DHT22;6376;48.182;-1.644;2022-08-19T06:47:13;21.60;74.20
12622;DHT22;6376;48.182;-1.644;2022-08-19T06:49:39;21.60;74.50
12622;DHT22;6376;48.182;-1.644;2022-08-19T06:52:05;21.60;74.40
12622;DHT22;6376;48.182;-1.644;2022-08-19T06:54:31;21.60;74.20
12622;DHT22;6376;48.182;-1.644;2022-08-19T06:56:58;21.60;74.20
12622;DHT22;6376;48.182;-1.644;2022-08-19T06:59:27;21.60;74.00
12622;DHT22;6376;48.182;-1.644;2022-08-19T07:01:55;21.60;73.90
12622;DHT22;6376;48.182;-1.644;2022-08-19T07:04:31;21.60;73.80
12622;DHT22;6376;48.182;-1.644;2022-08-19T07:07:05;21.60;73.80
12622;DHT22;6376;48.182;-1.644;2022-08-19T07:09:35;21.60;73.70
12622;DHT22;6376;48.182;-1.644;2022-08-19T07:12:04;21.60;73.60
12622;DHT22;6376;48.182;-1.644;2022-08-19T07:14:30;21.70;73.50
12622;DHT22;6376;48.182;-1.644;2022-08-19T07:16:56;21.70;73.30
12622;DHT22;6376;48.182;-1.644;2022-08-19T07:19:24;21.70;73.50
12622;DHT22;6376;48.182;-1.644;2022-08-19T07:21:51;21.80;73.50
12622;DHT22;6376;48.182;-1.644;2022-08-19T07:24:19;21.70;73.20
12622;DHT22;6376;48.182;-1.644;2022-08-19T07:26:46;21.80;72.80
12622;DHT22;6376;48.182;-1.644;2022-08-19T07:29:12;21.80;73.00
12622;DHT22;6376;48.182;-1.644;2022-08-19T07:31:39;21.80;73.30
12622;DHT22;6376;48.182;-1.644;2022-08-19T07:34:06;21.80;73.20
12622;DHT22;6376;48.182;-1.644;2022-08-19T07:36:34;21.80;73.30
12622;DHT22;6376;48.182;-1.644;2022-08-19T07:39:04;21.80;73.30
12622;DHT22;6376;48.182;-1.644;2022-08-19T07:41:30;21.80;73.20
12622;DHT22;6376;48.182;-1.644;2022-08-19T07:43:57;21.80;73.20
12622;DHT22;6376;48.182;-1.644;2022-08-19T07:46:23;21.90;72.90
12622;DHT22;6376;48.182;-1.644;2022-08-19T07:48:50;21.90;72.50
12622;DHT22;6376;48.182;-1.644;2022-08-19T07:51:19;22.00;72.50
12622;DHT22;6376;48.182;-1.644;2022-08-19T07:53:45;21.90;72.70
12622;DHT22;6376;48.182;-1.644;2022-08-19T07:56:13;21.90;72.70
12622;DHT22;6376;48.182;-1.644;2022-08-19T07:58:41;21.90;72.70
12622;DHT22;6376;48.182;-1.644;2022-08-19T08:01:09;21.90;72.70
12622;DHT22;6376;48.182;-1.644;2022-08-19T08:03:36;22.00;72.70
12622;DHT22;6376;48.182;-1.644;2022-08-19T08:06:20;22.00;72.80
12622;DHT22;6376;48.182;-1.644;2022-08-19T08:09:05;22.00;72.50
12622;DHT22;6376;48.182;-1.644;2022-08-19T08:11:53;22.00;72.70
12622;DHT22;6376;48.182;-1.644;2022-08-19T08:14:30;22.00;72.30
12622;DHT22;6376;48.182;-1.644;2022-08-19T08:16:56;22.00;72.20
12622;DHT22;6376;48.182;-1.644;2022-08-19T08:19:23;22.00;72.50
12622;DHT22;6376;48.182;-1.644;2022-08-19T08:21:50;22.00;72.00
12622;DHT22;6376;48.182;-1.644;2022-08-19T08:24:17;22.00;72.00
12622;DHT22;6376;48.182;-1.644;2022-08-19T08:26:43;22.00;72.10
12622;DHT22;6376;48.182;-1.644;2022-08-19T08:29:10;22.00;71.70
12622;DHT22;6376;48.182;-1.644;2022-08-19T08:31:40;22.10;71.80
12622;DHT22;6376;48.182;-1.644;2022-08-19T08:34:06;22.20;71.10
12622;DHT22;6376;48.182;-1.644;2022-08-19T08:36:35;22.10;70.90
12622;DHT22;6376;48.182;-1.644;2022-08-19T08:39:01;22.10;71.50
12622;DHT22;6376;48.182;-1.644;2022-08-19T08:41:39;22.20;70.80
12622;DHT22;6376;48.182;-1.644;2022-08-19T08:44:13;22.20;70.90
12622;DHT22;6376;48.182;-1.644;2022-08-19T08:46:46;22.20;71.10
12622;DHT22;6376;48.182;-1.644;2022-08-19T08:49:19;22.20;71.10
12622;DHT22;6376;48.182;-1.644;2022-08-19T08:51:54;22.20;70.80
12622;DHT22;6376;48.182;-1.644;2022-08-19T08:54:24;22.20;70.90
12622;DHT22;6376;48.182;-1.644;2022-08-19T08:56:52;22.30;70.20
12622;DHT22;6376;48.182;-1.644;2022-08-19T08:59:29;22.30;70.60
12622;DHT22;6376;48.182;-1.644;2022-08-19T09:01:59;22.30;70.70
12622;DHT22;6376;48.182;-1.644;2022-08-19T09:04:25;22.30;70.60
12622;DHT22;6376;48.182;-1.644;2022-08-19T09:07:09;22.30;70.40
12622;DHT22;6376;48.182;-1.644;2022-08-19T09:09:45;22.30;70.40
12622;DHT22;6376;48.182;-1.644;2022-08-19T09:12:31;22.20;70.30
12622;DHT22;6376;48.182;-1.644;2022-08-19T09:15:04;22.20;70.30
12622;DHT22;6376;48.182;-1.644;2022-08-19T09:17:31;22.20;70.50
12622;DHT22;6376;48.182;-1.644;2022-08-19T09:20:13;22.20;70.50
12622;DHT22;6376;48.182;-1.644;2022-08-19T09:22:41;22.20;70.50
12622;DHT22;6376;48.182;-1.644;2022-08-19T09:25:14;22.20;71.20
12622;DHT22;6376;48.182;-1.644;2022-08-19T09:27:41;22.20;70.60
12622;DHT22;6376;48.182;-1.644;2022-08-19T09:30:13;22.20;70.80
12622;DHT22;6376;48.182;-1.644;2022-08-19T09:32:39;22.20;70.60
12622;DHT22;6376;48.182;-1.644;2022-08-19T09:35:07;22.20;70.50
12622;DHT22;6376;48.182;-1.644;2022-08-19T09:37:33;22.20;70.40
12622;DHT22;6376;48.182;-1.644;2022-08-19T09:39:58;22.20;70.10
12622;DHT22;6376;48.182;-1.644;2022-08-19T09:42:24;22.30;70.30
12622;DHT22;6376;48.182;-1.644;2022-08-19T09:44:50;22.30;70.40
12622;DHT22;6376;48.182;-1.644;2022-08-19T09:47:15;22.30;70.30
12622;DHT22;6376;48.182;-1.644;2022-08-19T09:49:41;22.30;70.30
12622;DHT22;6376;48.182;-1.644;2022-08-19T09:52:11;22.20;70.20
12622;DHT22;6376;48.182;-1.644;2022-08-19T09:54:38;22.30;70.30
12622;DHT22;6376;48.182;-1.644;2022-08-19T09:57:04;22.20;70.20
12622;DHT22;6376;48.182;-1.644;2022-08-19T09:59:30;22.20;70.30
12622;DHT22;6376;48.182;-1.644;2022-08-19T10:01:56;22.30;70.20
12622;DHT22;6376;48.182;-1.644;2022-08-19T10:04:21;22.30;70.50
12622;DHT22;6376;48.182;-1.644;2022-08-19T10:06:48;22.30;70.10
12622;DHT22;6376;48.182;-1.644;2022-08-19T10:09:16;22.30;70.10
12622;DHT22;6376;48.182;-1.644;2022-08-19T10:11:44;22.30;70.40
12622;DHT22;6376;48.182;-1.644;2022-08-19T10:14:15;22.30;70.00
12622;DHT22;6376;48.182;-1.644;2022-08-19T10:16:42;22.30;70.10
12622;DHT22;6376;48.182;-1.644;2022-08-19T10:19:08;22.30;70.30
12622;DHT22;6376;48.182;-1.644;2022-08-19T10:21:34;22.30;70.50
12622;DHT22;6376;48.182;-1.644;2022-08-19T10:24:03;22.30;70.10
12622;DHT22;6376;48.182;-1.644;2022-08-19T10:26:39;22.40;69.90
12622;DHT22;6376;48.182;-1.644;2022-08-19T10:29:07;22.50;69.30
12622;DHT22;6376;48.182;-1.644;2022-08-19T10:31:34;22.50;69.10
12622;DHT22;6376;48.182;-1.644;2022-08-19T10:34:00;22.50;69.10
12622;DHT22;6376;48.182;-1.644;2022-08-19T10:36:32;22.40;69.70
12622;DHT22;6376;48.182;-1.644;2022-08-19T10:39:02;22.40;69.90
12622;DHT22;6376;48.182;-1.644;2022-08-19T10:41:34;22.40;69.60
12622;DHT22;6376;48.182;-1.644;2022-08-19T10:44:08;22.50;69.50
12622;DHT22;6376;48.182;-1.644;2022-08-19T10:46:37;22.50;69.40
12622;DHT22;6376;48.182;-1.644;2022-08-19T10:49:04;22.50;69.60
12622;DHT22;6376;48.182;-1.644;2022-08-19T10:51:30;22.40;69.40
12622;DHT22;6376;48.182;-1.644;2022-08-19T10:54:15;22.40;69.60
12622;DHT22;6376;48.182;-1.644;2022-08-19T10:56:41;22.40;69.60
12622;DHT22;6376;48.182;-1.644;2022-08-19T10:59:27;22.40;69.60
12622;DHT22;6376;48.182;-1.644;2022-08-19T11:02:06;22.40;69.70
12622;DHT22;6376;48.182;-1.644;2022-08-19T11:04:32;22.40;69.70
12622;DHT22;6376;48.182;-1.644;2022-08-19T11:06:58;22.40;69.70
12622;DHT22;6376;48.182;-1.644;2022-08-19T11:09:25;22.40;69.60
12622;DHT22;6376;48.182;-1.644;2022-08-19T11:11:52;22.40;69.50
12622;DHT22;6376;48.182;-1.644;2022-08-19T11:14:20;22.40;69.50
12622;DHT22;6376;48.182;-1.644;2022-08-19T11:16:48;22.40;70.00
12622;DHT22;6376;48.182;-1.644;2022-08-19T11:19:14;22.40;69.80
12622;DHT22;6376;48.182;-1.644;2022-08-19T11:21:44;22.40;70.00
12622;DHT22;6376;48.182;-1.644;2022-08-19T11:24:21;22.40;69.90
12622;DHT22;6376;48.182;-1.644;2022-08-19T11:26:49;22.40;69.70
12622;DHT22;6376;48.182;-1.644;2022-08-19T11:29:16;22.40;70.00
12622;DHT22;6376;48.182;-1.644;2022-08-19T11:31:45;22.40;69.70
12622;DHT22;6376;48.182;-1.644;2022-08-19T11:34:14;22.40;69.70
12622;DHT22;6376;48.182;-1.644;2022-08-19T11:36:43;22.40;70.00
12622;DHT22;6376;48.182;-1.644;2022-08-19T11:39:13;22.40;69.90
12622;DHT22;6376;48.182;-1.644;2022-08-19T11:41:39;22.40;69.60
12622;DHT22;6376;48.182;-1.644;2022-08-19T11:44:05;22.40;70.20
12622;DHT22;6376;48.182;-1.644;2022-08-19T11:46:31;22.40;69.80
12622;DHT22;6376;48.182;-1.644;2022-08-19T11:48:58;22.40;69.70
12622;DHT22;6376;48.182;-1.644;2022-08-19T11:51:26;22.40;70.90
12622;DHT22;6376;48.182;-1.644;2022-08-19T11:53:57;22.40;69.90
12622;DHT22;6376;48.182;-1.644;2022-08-19T11:56:24;22.40;69.80
12622;DHT22;6376;48.182;-1.644;2022-08-19T11:58:51;22.50;69.90
12622;DHT22;6376;48.182;-1.644;2022-08-19T12:01:19;22.50;70.00
12622;DHT22;6376;48.182;-1.644;2022-08-19T12:03:47;22.50;69.70
12622;DHT22;6376;48.182;-1.644;2022-08-19T12:06:17;22.50;69.70
12622;DHT22;6376;48.182;-1.644;2022-08-19T12:08:44;22.50;69.60
12622;DHT22;6376;48.182;-1.644;2022-08-19T12:11:12;22.50;69.70
12622;DHT22;6376;48.182;-1.644;2022-08-19T12:13:39;22.50;69.90
12622;DHT22;6376;48.182;-1.644;2022-08-19T12:16:09;22.50;69.50
12622;DHT22;6376;48.182;-1.644;2022-08-19T12:18:38;22.50;69.70
12622;DHT22;6376;48.182;-1.644;2022-08-19T12:21:03;22.50;69.70
12622;DHT22;6376;48.182;-1.644;2022-08-19T12:23:29;22.40;69.90
12622;DHT22;6376;48.182;-1.644;2022-08-19T12:25:55;22.40;70.00
12622;DHT22;6376;48.182;-1.644;2022-08-19T12:28:23;22.50;69.60
12622;DHT22;6376;48.182;-1.644;2022-08-19T12:30:49;22.50;69.70
12622;DHT22;6376;48.182;-1.644;2022-08-19T12:33:19;22.50;69.60
12622;DHT22;6376;48.182;-1.644;2022-08-19T12:35:45;22.50;69.60
12622;DHT22;6376;48.182;-1.644;2022-08-19T12:38:13;22.60;69.90
12622;DHT22;6376;48.182;-1.644;2022-08-19T12:40:40;22.60;69.40
12622;DHT22;6376;48.182;-1.644;2022-08-19T12:43:07;22.60;69.40
12622;DHT22;6376;48.182;-1.644;2022-08-19T12:45:33;22.60;69.20
12622;DHT22;6376;48.182;-1.644;2022-08-19T12:47:58;22.60;69.30
12622;DHT22;6376;48.182;-1.644;2022-08-19T12:50:24;22.60;69.20
12622;DHT22;6376;48.182;-1.644;2022-08-19T12:52:50;22.60;69.70
12622;DHT22;6376;48.182;-1.644;2022-08-19T12:55:16;22.60;69.60
12622;DHT22;6376;48.182;-1.644;2022-08-19T12:57:44;22.60;69.30
12622;DHT22;6376;48.182;-1.644;2022-08-19T13:00:15;22.60;69.20
12622;DHT22;6376;48.182;-1.644;2022-08-19T13:02:44;22.60;69.40
12622;DHT22;6376;48.182;-1.644;2022-08-19T13:05:12;22.60;69.30
12622;DHT22;6376;48.182;-1.644;2022-08-19T13:07:39;22.60;69.40
12622;DHT22;6376;48.182;-1.644;2022-08-19T13:10:11;22.60;69.60
12622;DHT22;6376;48.182;-1.644;2022-08-19T13:12:37;22.60;69.40
12622;DHT22;6376;48.182;-1.644;2022-08-19T13:15:04;22.60;69.40
12622;DHT22;6376;48.182;-1.644;2022-08-19T13:17:30;22.60;69.40
12622;DHT22;6376;48.182;-1.644;2022-08-19T13:19:56;22.60;69.70
12622;DHT22;6376;48.182;-1.644;2022-08-19T13:22:21;22.50;69.60
12622;DHT22;6376;48.182;-1.644;2022-08-19T13:24:47;22.50;70.10
12622;DHT22;6376;48.182;-1.644;2022-08-19T13:27:14;22.60;69.90
12622;DHT22;6376;48.182;-1.644;2022-08-19T13:29:41;22.50;69.70
12622;DHT22;6376;48.182;-1.644;2022-08-19T13:32:25;22.60;69.80
12622;DHT22;6376;48.182;-1.644;2022-08-19T13:35:09;22.60;69.60
12622;DHT22;6376;48.182;-1.644;2022-08-19T13:37:34;22.60;69.40
12622;DHT22;6376;48.182;-1.644;2022-08-19T13:40:09;22.60;69.90
12622;DHT22;6376;48.182;-1.644;2022-08-19T13:42:39;22.50;69.70
12622;DHT22;6376;48.182;-1.644;2022-08-19T13:45:05;22.50;70.50
12622;DHT22;6376;48.182;-1.644;2022-08-19T13:47:32;22.50;70.60
12622;DHT22;6376;48.182;-1.644;2022-08-19T13:50:01;22.50;70.70
12622;DHT22;6376;48.182;-1.644;2022-08-19T13:52:27;22.50;70.50
12622;DHT22;6376;48.182;-1.644;2022-08-19T13:54:53;22.50;71.30
12622;DHT22;6376;48.182;-1.644;2022-08-19T13:57:19;22.50;70.90
12622;DHT22;6376;48.182;-1.644;2022-08-19T13:59:45;22.50;71.00
12622;DHT22;6376;48.182;-1.644;2022-08-19T14:02:10;22.50;71.30
12622;DHT22;6376;48.182;-1.644;2022-08-19T14:04:36;22.50;71.10
12622;DHT22;6376;48.182;-1.644;2022-08-19T14:07:03;22.50;71.10
12622;DHT22;6376;48.182;-1.644;2022-08-19T14:09:29;22.50;70.80
12622;DHT22;6376;48.182;-1.644;2022-08-19T14:11:55;22.50;71.20
12622;DHT22;6376;48.182;-1.644;2022-08-19T14:14:20;22.50;71.40
12622;DHT22;6376;48.182;-1.644;2022-08-19T14:16:47;22.40;71.70
12622;DHT22;6376;48.182;-1.644;2022-08-19T14:19:13;22.40;71.80
12622;DHT22;6376;48.182;-1.644;2022-08-19T14:21:39;22.40;71.50
12622;DHT22;6376;48.182;-1.644;2022-08-19T14:24:06;22.30;71.80
12622;DHT22;6376;48.182;-1.644;2022-08-19T14:26:32;22.20;72.10
12622;DHT22;6376;48.182;-1.644;2022-08-19T14:28:58;22.20;72.40
12622;DHT22;6376;48.182;-1.644;2022-08-19T14:31:24;22.20;72.60
12622;DHT22;6376;48.182;-1.644;2022-08-19T14:33:51;22.10;72.60
12622;DHT22;6376;48.182;-1.644;2022-08-19T14:36:18;22.10;72.70
12622;DHT22;6376;48.182;-1.644;2022-08-19T14:38:44;22.10;73.10
12622;DHT22;6376;48.182;-1.644;2022-08-19T14:41:16;22.10;73.30
12622;DHT22;6376;48.182;-1.644;2022-08-19T14:43:43;22.10;73.20
12622;DHT22;6376;48.182;-1.644;2022-08-19T14:46:16;22.10;73.20
12622;DHT22;6376;48.182;-1.644;2022-08-19T14:48:42;22.10;73.00
12622;DHT22;6376;48.182;-1.644;2022-08-19T14:51:08;22.20;73.10
12622;DHT22;6376;48.182;-1.644;2022-08-19T14:53:34;22.30;72.70
12622;DHT22;6376;48.182;-1.644;2022-08-19T14:56:01;22.30;72.80
12622;DHT22;6376;48.182;-1.644;2022-08-19T14:58:27;22.20;73.00
12622;DHT22;6376;48.182;-1.644;2022-08-19T15:00:53;22.10;73.10
12622;DHT22;6376;48.182;-1.644;2022-08-19T15:03:19;22.10;73.40
12622;DHT22;6376;48.182;-1.644;2022-08-19T15:05:44;22.00;73.30
12622;DHT22;6376;48.182;-1.644;2022-08-19T15:08:10;22.00;73.90
12622;DHT22;6376;48.182;-1.644;2022-08-19T15:10:38;22.10;73.80
12622;DHT22;6376;48.182;-1.644;2022-08-19T15:13:03;22.10;73.60
12622;DHT22;6376;48.182;-1.644;2022-08-19T15:15:29;22.20;73.40
12622;DHT22;6376;48.182;-1.644;2022-08-19T15:17:55;22.20;73.10
12622;DHT22;6376;48.182;-1.644;2022-08-19T15:20:27;22.20;73.50
12622;DHT22;6376;48.182;-1.644;2022-08-19T15:22:53;22.20;73.70
12622;DHT22;6376;48.182;-1.644;2022-08-19T15:25:19;22.30;73.30
12622;DHT22;6376;48.182;-1.644;2022-08-19T15:27:46;22.30;73.00
12622;DHT22;6376;48.182;-1.644;2022-08-19T15:30:17;22.30;72.90
12622;DHT22;6376;48.182;-1.644;2022-08-19T15:32:43;22.30;72.10
12622;DHT22;6376;48.182;-1.644;2022-08-19T15:35:09;22.30;72.50
12622;DHT22;6376;48.182;-1.644;2022-08-19T15:37:35;22.30;72.80